Corinthiakos — A8UL2 — position and weather

sailwx.info

Track history (hours):
 
Tides and Currents Weather Stations Pressure Air Temp Water Temp Dewpoint Dewpoint Depression Visibility Wind Speed Wind Dir Waves Ship Positions

Corinthiakos

Last reported at 2016-Apr-18 03:29 UTC. Time now 2016-Apr-29 06:06 UTC.
Position N 01°56' E 102°17'.
Warning: this ship's position is 11 days out of date.

Length 262 m; draft 12.2 m.

Type: Cargo ship. MMSI: 636014516.

Date/timePositionNaut miles runAvg speedWind from/ knotsBaromVisibWave heightAir tempDewpointWater temp
2016-Apr-18 03:29N 01°56' E 102°17'1516.4
2016-Apr-18 02:33N 01°50' E 102°31'1616.1
2016-Apr-18 01:33N 01°43' E 102°46'1615.5
2016-Apr-18 00:33N 01°37' E 103°00'3315.7
2016-Apr-17 22:27N 01°14' E 103°25'1516.7
2016-Apr-17 21:33N 01°11' E 103°39'1413.9
2016-Apr-17 20:34N 01°13' E 103°53'4 3.9
2016-Apr-17 19:33N 01°16' E 103°51'0 0.0
2016-Apr-17 18:33N 01°16' E 103°51'0 0.0
2016-Apr-17 17:30N 01°16' E 103°51'0 0.0
2016-Apr-17 16:33N 01°16' E 103°51'0 0.0
2016-Apr-17 15:30N 01°16' E 103°51'0 0.0
2016-Apr-17 14:18N 01°16' E 103°51'0 0.0
2016-Apr-17 13:25N 01°16' E 103°51'0 0.0
2016-Apr-17 12:31N 01°16' E 103°51'0 0.0
2016-Apr-17 11:33N 01°16' E 103°51'2 1.6
2016-Apr-17 10:34N 01°15' E 103°52'5 4.8
2016-Apr-17 09:34N 01°14' E 103°57'1312.7
2016-Apr-17 08:33N 01°17' E 104°09'  
2016-Apr-13 20:13N 22°01' E 114°24'914.0
2016-Apr-13 19:33N 22°07' E 114°17'1412.3
2016-Apr-13 18:27N 22°16' E 114°06'4 0.3
2016-Apr-13 04:30N 22°20' E 114°05'2 1.5
2016-Apr-13 03:31N 22°19' E 114°05'0 0.1
2016-Apr-13 02:31N 22°19' E 114°05'0 0.1
2016-Apr-13 01:30N 22°19' E 114°05'3 3.0
2016-Apr-13 00:31N 22°20' E 114°08'0 0.0
2016-Apr-12 23:31N 22°20' E 114°08'0 0.0
2016-Apr-12 22:31N 22°20' E 114°08'0 0.0
2016-Apr-12 21:31N 22°20' E 114°08'0 0.0
2016-Apr-12 20:31N 22°20' E 114°08'0 0.0
2016-Apr-12 19:31N 22°20' E 114°08'0 0.0
2016-Apr-12 18:31N 22°20' E 114°08'0 0.0
2016-Apr-12 17:31N 22°20' E 114°08'0 0.0
2016-Apr-12 16:31N 22°20' E 114°08'0 0.0
2016-Apr-12 15:31N 22°20' E 114°08'2 2.5
2016-Apr-12 14:34N 22°18' E 114°06'1110.5
2016-Apr-12 13:30N 22°10' E 114°13'17 1.0
2016-Apr-11 20:30N 22°03' E 114°30'0 0.0
2016-Apr-11 19:33N 22°03' E 114°30'0 0.0
2016-Apr-11 18:32N 22°03' E 114°30'28517.8
2016-Apr-11 02:33N 22°26' E 119°37'1818.4
2016-Apr-11 01:34N 22°29' E 119°56'1818.0
2016-Apr-11 00:33N 22°33' E 120°15'3 3.2
2016-Apr-10 23:32N 22°34' E 120°19'1 0.7
2016-Apr-10 22:31N 22°35' E 120°18'0 0.0
2016-Apr-10 21:31N 22°35' E 120°18'0 0.0
2016-Apr-10 20:31N 22°35' E 120°18'0 0.0
2016-Apr-10 19:31N 22°35' E 120°18'0 0.0
2016-Apr-10 18:25N 22°35' E 120°18'0 0.0
2016-Apr-10 17:31N 22°35' E 120°18'0 0.0
2016-Apr-10 16:31N 22°35' E 120°18'0 0.0
2016-Apr-10 15:31N 22°35' E 120°18'0 0.1
2016-Apr-10 14:31N 22°35' E 120°18'0 0.1
2016-Apr-10 13:31N 22°35' E 120°18'0 0.0
2016-Apr-10 09:16N 22°35' E 120°18'0 0.0
2016-Apr-10 03:10N 22°35' E 120°18'0 0.0
2016-Apr-10 02:04N 22°35' E 120°18'1 1.4
2016-Apr-10 01:33N 22°34' E 120°19'3 3.3
2016-Apr-10 00:32N 22°32' E 120°15'10 9.9
2016-Apr-09 23:31N 22°30' E 120°05'1615.6
2016-Apr-09 22:31N 22°26' E 119°48'  
Track history (hours):
 
Tides and Currents Weather Stations Pressure Air Temp Water Temp Dewpoint Dewpoint Depression Visibility Wind Speed Wind Dir Waves Ship Positions

Corinthiakos

Last reported at 2016-Apr-18 03:29 UTC. Time now 2016-Apr-29 06:06 UTC.
Position N 01°56' E 102°17'.
Warning: this ship's position is 11 days out of date.

Length 262 m; draft 12.2 m.

Type: Cargo ship. MMSI: 636014516.

Date/timePositionNaut miles runAvg speedWind from/ knotsBaromVisibWave heightAir tempDewpointWater temp
2016-Apr-18 03:29N 01°56' E 102°17'1516.4
2016-Apr-18 02:33N 01°50' E 102°31'1616.1
2016-Apr-18 01:33N 01°43' E 102°46'1615.5
2016-Apr-18 00:33N 01°37' E 103°00'3315.7
2016-Apr-17 22:27N 01°14' E 103°25'1516.7
2016-Apr-17 21:33N 01°11' E 103°39'1413.9
2016-Apr-17 20:34N 01°13' E 103°53'4 3.9
2016-Apr-17 19:33N 01°16' E 103°51'0 0.0
2016-Apr-17 18:33N 01°16' E 103°51'0 0.0
2016-Apr-17 17:30N 01°16' E 103°51'0 0.0
2016-Apr-17 16:33N 01°16' E 103°51'0 0.0
2016-Apr-17 15:30N 01°16' E 103°51'0 0.0
2016-Apr-17 14:18N 01°16' E 103°51'0 0.0
2016-Apr-17 13:25N 01°16' E 103°51'0 0.0
2016-Apr-17 12:31N 01°16' E 103°51'0 0.0
2016-Apr-17 11:33N 01°16' E 103°51'2 1.6
2016-Apr-17 10:34N 01°15' E 103°52'5 4.8
2016-Apr-17 09:34N 01°14' E 103°57'1312.7
2016-Apr-17 08:33N 01°17' E 104°09'  
2016-Apr-13 20:13N 22°01' E 114°24'914.0
2016-Apr-13 19:33N 22°07' E 114°17'1412.3
2016-Apr-13 18:27N 22°16' E 114°06'4 0.3
2016-Apr-13 04:30N 22°20' E 114°05'2 1.5
2016-Apr-13 03:31N 22°19' E 114°05'0 0.1
2016-Apr-13 02:31N 22°19' E 114°05'0 0.1
2016-Apr-13 01:30N 22°19' E 114°05'3 3.0
2016-Apr-13 00:31N 22°20' E 114°08'0 0.0
2016-Apr-12 23:31N 22°20' E 114°08'0 0.0
2016-Apr-12 22:31N 22°20' E 114°08'0 0.0
2016-Apr-12 21:31N 22°20' E 114°08'0 0.0
2016-Apr-12 20:31N 22°20' E 114°08'0 0.0
2016-Apr-12 19:31N 22°20' E 114°08'0 0.0
2016-Apr-12 18:31N 22°20' E 114°08'0 0.0
2016-Apr-12 17:31N 22°20' E 114°08'0 0.0
2016-Apr-12 16:31N 22°20' E 114°08'0 0.0
2016-Apr-12 15:31N 22°20' E 114°08'2 2.5
2016-Apr-12 14:34N 22°18' E 114°06'1110.5
2016-Apr-12 13:30N 22°10' E 114°13'17 1.0
2016-Apr-11 20:30N 22°03' E 114°30'0 0.0
2016-Apr-11 19:33N 22°03' E 114°30'0 0.0
2016-Apr-11 18:32N 22°03' E 114°30'28517.8
2016-Apr-11 02:33N 22°26' E 119°37'1818.4
2016-Apr-11 01:34N 22°29' E 119°56'1818.0
2016-Apr-11 00:33N 22°33' E 120°15'3 3.2
2016-Apr-10 23:32N 22°34' E 120°19'1 0.7
2016-Apr-10 22:31N 22°35' E 120°18'0 0.0
2016-Apr-10 21:31N 22°35' E 120°18'0 0.0
2016-Apr-10 20:31N 22°35' E 120°18'0 0.0
2016-Apr-10 19:31N 22°35' E 120°18'0 0.0
2016-Apr-10 18:25N 22°35' E 120°18'0 0.0
2016-Apr-10 17:31N 22°35' E 120°18'0 0.0
2016-Apr-10 16:31N 22°35' E 120°18'0 0.0
2016-Apr-10 15:31N 22°35' E 120°18'0 0.1
2016-Apr-10 14:31N 22°35' E 120°18'0 0.1
2016-Apr-10 13:31N 22°35' E 120°18'0 0.0
2016-Apr-10 09:16N 22°35' E 120°18'0 0.0
2016-Apr-10 03:10N 22°35' E 120°18'0 0.0
2016-Apr-10 02:04N 22°35' E 120°18'1 1.4
2016-Apr-10 01:33N 22°34' E 120°19'3 3.3
2016-Apr-10 00:32N 22°32' E 120°15'10 9.9
2016-Apr-09 23:31N 22°30' E 120°05'1615.6
2016-Apr-09 22:31N 22°26' E 119°48'  

Dump ship's entire track history